Izumo Princess — SXMB — position and weather

sailwx.info

Track history (hours):
 
Tides and Currents Weather Stations Pressure Air Temp Water Temp Dewpoint Dewpoint Depression Visibility Wind Speed Wind Dir Waves Ship Positions

Izumo Princess

Last reported at 2017-Oct-15 20:04 UTC. Time now 2017-Oct-20 15:57 UTC.
Position N 40°58' W 009°05'.

Length 229 m; draft 13.1 m.

Type: Tanker. MMSI: 240611000.

Date/timePositionNaut miles runAvg speedWind from/ knotsBaromVisibWave heightAir tempDewpointWater temp
2017-Oct-15 20:04N 40°58' W 009°05'0 2.4
2017-Oct-15 20:00N 40°58' W 009°05'1 2.3
2017-Oct-15 19:30N 40°57' W 009°05'5 0.8
2017-Oct-15 13:36N 40°59' W 008°60'2 6.9
2017-Oct-15 13:20N 41°01' W 008°58'3 6.9
2017-Oct-15 12:57N 41°03' W 008°57'3 6.9
2017-Oct-15 12:27N 41°06' W 008°54'3 6.9
2017-Oct-15 12:00N 41°09' W 008°52'3 6.8
2017-Oct-15 11:30N 41°11' W 008°50'3 5.5
2017-Oct-15 11:00N 41°13' W 008°47'2 3.2
2017-Oct-15 10:28N 41°12' W 008°45'0 0.1
2017-Oct-15 09:55N 41°12' W 008°45'0 0.0
2017-Oct-15 09:25N 41°12' W 008°45'0 0.0
2017-Oct-15 08:58N 41°12' W 008°45'0 0.1
2017-Oct-15 08:28N 41°12' W 008°45'0 0.1
2017-Oct-15 07:58N 41°12' W 008°45'0 0.3
2017-Oct-15 07:28N 41°12' W 008°45'0 0.2
2017-Oct-15 06:58N 41°12' W 008°45'0 0.1
2017-Oct-15 06:28N 41°12' W 008°45'0 0.1
2017-Oct-15 05:58N 41°12' W 008°45'0 0.1
2017-Oct-15 05:19N 41°12' W 008°45'0 0.1
2017-Oct-15 04:55N 41°12' W 008°45'0 0.1
2017-Oct-15 04:28N 41°12' W 008°45'0 0.1
2017-Oct-15 03:55N 41°12' W 008°45'0 0.1
2017-Oct-15 03:28N 41°12' W 008°45'0 0.1
2017-Oct-15 02:49N 41°12' W 008°45'0 0.1
2017-Oct-15 02:28N 41°12' W 008°45'0 0.0
2017-Oct-15 01:58N 41°12' W 008°45'0 0.0
2017-Oct-15 01:28N 41°12' W 008°45'0 0.0
2017-Oct-15 00:58N 41°12' W 008°45'0 0.1
2017-Oct-15 00:28N 41°12' W 008°45'0 0.1
2017-Oct-14 23:58N 41°12' W 008°45'0 0.0
2017-Oct-14 23:28N 41°12' W 008°45'0 0.0
2017-Oct-14 22:58N 41°12' W 008°45'0 0.1
2017-Oct-14 22:28N 41°12' W 008°45'0 0.1
2017-Oct-14 21:55N 41°12' W 008°45'0 0.0
2017-Oct-14 21:28N 41°12' W 008°45'0 0.0
2017-Oct-14 20:52N 41°12' W 008°45'0 0.1
2017-Oct-14 20:28N 41°12' W 008°45'0 0.0
2017-Oct-14 19:58N 41°12' W 008°45'0 0.0
2017-Oct-14 19:28N 41°12' W 008°45'0 0.0
2017-Oct-14 18:58N 41°12' W 008°45'0 0.0
2017-Oct-14 18:28N 41°12' W 008°45'0 0.1
2017-Oct-14 17:58N 41°12' W 008°45'0 0.1
2017-Oct-14 17:28N 41°12' W 008°45'0 0.1
2017-Oct-14 16:55N 41°12' W 008°45'0 0.1
2017-Oct-14 16:28N 41°12' W 008°45'0 0.1
2017-Oct-14 15:55N 41°12' W 008°45'0 0.0
2017-Oct-14 15:19N 41°12' W 008°45'0 0.1
2017-Oct-14 14:58N 41°12' W 008°45'0 0.1
2017-Oct-14 14:25N 41°12' W 008°45'0 0.1
2017-Oct-14 13:58N 41°12' W 008°45'0 0.1
2017-Oct-14 13:28N 41°12' W 008°45'0 0.0
2017-Oct-14 12:58N 41°12' W 008°45'0 0.0
2017-Oct-14 12:16N 41°12' W 008°45'0 0.1
2017-Oct-14 11:58N 41°12' W 008°45'0 0.0
2017-Oct-14 11:28N 41°12' W 008°45'0 0.1
2017-Oct-14 10:58N 41°12' W 008°45'0 0.0
2017-Oct-14 10:28N 41°12' W 008°45'0 0.0
2017-Oct-14 09:58N 41°12' W 008°45'0 0.1
2017-Oct-14 09:28N 41°12' W 008°45'0 0.1
2017-Oct-14 08:58N 41°12' W 008°45'0 0.2
2017-Oct-14 08:30N 41°12' W 008°45'0 0.7
2017-Oct-14 08:00N 41°13' W 008°45'2 3.4
2017-Oct-14 07:31N 41°11' W 008°46'2 4.1
2017-Oct-14 07:00N 41°09' W 008°48'0 0.9
2017-Oct-14 06:30N 41°09' W 008°48'2 4.2
2017-Oct-14 06:00N 41°07' W 008°48'0 0.4
2017-Oct-14 05:10N 41°07' W 008°48'0 0.2
2017-Oct-14 04:55N 41°07' W 008°48'0 0.1
2017-Oct-14 04:28N 41°07' W 008°48'0 0.0
2017-Oct-14 03:19N 41°06' W 008°48'0 0.0
2017-Oct-14 01:46N 41°06' W 008°48'0 0.0
2017-Oct-14 01:28N 41°06' W 008°48'0 0.0
2017-Oct-14 00:40N 41°06' W 008°48'0 0.1
2017-Oct-14 00:25N 41°06' W 008°48'0 0.0
2017-Oct-13 23:40N 41°07' W 008°48'0 0.0
2017-Oct-13 23:22N 41°06' W 008°48'0 0.0
2017-Oct-13 21:58N 41°07' W 008°48'0 0.0
2017-Oct-13 21:28N 41°07' W 008°48'0 0.0
2017-Oct-13 20:49N 41°07' W 008°48'0 0.1
2017-Oct-13 20:19N 41°07' W 008°48'0 0.1
2017-Oct-13 19:58N 41°07' W 008°48'0 0.1
2017-Oct-13 19:25N 41°07' W 008°48'0 0.3
2017-Oct-13 18:48N 41°07' W 008°48'1 1.8
2017-Oct-13 18:30N 41°06' W 008°49'4 4.7
2017-Oct-13 17:44N 41°03' W 008°52'4611.3
2017-Oct-13 13:41N 40°23' W 009°20'211.7
2017-Oct-13 13:30N 40°21' W 009°21'1711.8
2017-Oct-13 12:03N 40°06' W 009°32'111.9
2017-Oct-13 11:58N 40°05' W 009°33'611.8
2017-Oct-13 11:28N 39°60' W 009°37'1111.7
2017-Oct-13 10:34N 39°51' W 009°43'112.0
2017-Oct-13 10:29N 39°50' W 009°44'911.9
2017-Oct-13 09:45N 39°42' W 009°50'612.0
2017-Oct-13 09:15N 39°37' W 009°54'311.9
2017-Oct-13 09:00N 39°35' W 009°56'611.4
2017-Oct-13 08:26N 39°29' W 009°58'511.7
2017-Oct-13 08:00N 39°23' W 009°58'711.2
2017-Oct-13 07:20N 39°16' W 009°58'411.9
2017-Oct-13 07:00N 39°12' W 009°58'611.9
2017-Oct-13 06:30N 39°06' W 009°58'611.8
2017-Oct-13 06:00N 39°00' W 009°57'611.8
2017-Oct-13 05:30N 38°54' W 009°57'611.7
2017-Oct-13 05:00N 38°49' W 009°56'611.5
2017-Oct-13 04:30N 38°43' W 009°57'611.2
2017-Oct-13 04:00N 38°37' W 009°56'611.4
2017-Oct-13 03:27N 38°31' W 009°54'511.3
2017-Oct-13 03:00N 38°26' W 009°52'1011.5
2017-Oct-13 02:09N 38°17' W 009°50'211.2
2017-Oct-13 02:00N 38°15' W 009°49'611.4
2017-Oct-13 01:30N 38°09' W 009°47'611.9
2017-Oct-13 01:00N 38°04' W 009°46'611.7
2017-Oct-13 00:30N 37°58' W 009°44'611.8
2017-Oct-13 00:00N 37°52' W 009°42'611.4
2017-Oct-12 23:30N 37°47' W 009°40'611.5
2017-Oct-12 23:00N 37°41' W 009°38'611.5
2017-Oct-12 22:30N 37°36' W 009°36'3211.7
2017-Oct-12 19:46N 37°04' W 009°28'1611.5
2017-Oct-12 18:21N 36°49' W 009°22'411.6
2017-Oct-12 18:00N 36°46' W 009°18'611.7
2017-Oct-12 17:30N 36°42' W 009°13'611.7
2017-Oct-12 17:00N 36°40' W 009°06'611.6
2017-Oct-12 16:30N 36°38' W 008°59'611.8
2017-Oct-12 16:00N 36°36' W 008°52'611.8
2017-Oct-12 15:30N 36°34' W 008°45'611.8
2017-Oct-12 15:00N 36°32' W 008°38'612.2
2017-Oct-12 14:30N 36°30' W 008°31'612.1
2017-Oct-12 14:00N 36°27' W 008°24'612.3
2017-Oct-12 13:30N 36°25' W 008°17'612.4
2017-Oct-12 13:00N 36°23' W 008°10'612.3
2017-Oct-12 12:30N 36°21' W 008°03'611.8
2017-Oct-12 12:00N 36°18' W 007°56'611.5
2017-Oct-12 11:30N 36°16' W 007°50'611.3
2017-Oct-12 10:59N 36°14' W 007°43'611.7
2017-Oct-12 10:30N 36°12' W 007°36'611.9
2017-Oct-12 09:59N 36°10' W 007°29'612.4
2017-Oct-12 09:29N 36°09' W 007°22'712.3
2017-Oct-12 08:57N 36°08' W 007°14'1611.8
2017-Oct-12 07:36N 36°05' W 006°54'111.7
2017-Oct-12 07:30N 36°05' W 006°53'611.9
2017-Oct-12 07:00N 36°03' W 006°46'611.9
2017-Oct-12 06:30N 36°02' W 006°38'2511.7
2017-Oct-12 04:20N 35°58' W 006°08'412.2
2017-Oct-12 03:59N 35°58' W 006°02'812.4
2017-Oct-12 03:20N 35°58' W 005°52'412.8
2017-Oct-12 03:00N 35°58' W 005°47'612.9
2017-Oct-12 02:30N 35°58' W 005°39'612.2
2017-Oct-12 02:00N 35°59' W 005°32'612.0
2017-Oct-12 01:30N 36°01' W 005°25'611.8
2017-Oct-12 01:00N 36°04' W 005°19'611.0
2017-Oct-12 00:30N 36°07' W 005°13'29211.8
2017-Oct-10 23:41N 37°15' E 000°42'212.3
2017-Oct-10 23:30N 37°15' E 000°44'2712.4
2017-Oct-10 21:17N 37°18' E 001°19'59512.0
2017-Oct-08 19:43N 36°38' E 013°41'411.7
2017-Oct-08 19:24N 36°37' E 013°46'811.5
2017-Oct-08 18:41N 36°34' E 013°55'211.7
2017-Oct-08 18:30N 36°34' E 013°58'611.5
2017-Oct-08 18:00N 36°32' E 014°05'611.5
2017-Oct-08 17:30N 36°30' E 014°12'611.3
2017-Oct-08 17:00N 36°28' E 014°18'611.3
2017-Oct-08 16:30N 36°27' E 014°25'611.4
2017-Oct-08 16:00N 36°26' E 014°32'611.7
2017-Oct-08 15:30N 36°24' E 014°39'611.6
2017-Oct-08 15:00N 36°22' E 014°46'  
Track history (hours):
 
Tides and Currents Weather Stations Pressure Air Temp Water Temp Dewpoint Dewpoint Depression Visibility Wind Speed Wind Dir Waves Ship Positions

Izumo Princess

Last reported at 2017-Oct-15 20:04 UTC. Time now 2017-Oct-20 15:57 UTC.
Position N 40°58' W 009°05'.

Length 229 m; draft 13.1 m.

Type: Tanker. MMSI: 240611000.

Date/timePositionNaut miles runAvg speedWind from/ knotsBaromVisibWave heightAir tempDewpointWater temp
2017-Oct-15 20:04N 40°58' W 009°05'0 2.4
2017-Oct-15 20:00N 40°58' W 009°05'1 2.3
2017-Oct-15 19:30N 40°57' W 009°05'5 0.8
2017-Oct-15 13:36N 40°59' W 008°60'2 6.9
2017-Oct-15 13:20N 41°01' W 008°58'3 6.9
2017-Oct-15 12:57N 41°03' W 008°57'3 6.9
2017-Oct-15 12:27N 41°06' W 008°54'3 6.9
2017-Oct-15 12:00N 41°09' W 008°52'3 6.8
2017-Oct-15 11:30N 41°11' W 008°50'3 5.5
2017-Oct-15 11:00N 41°13' W 008°47'2 3.2
2017-Oct-15 10:28N 41°12' W 008°45'0 0.1
2017-Oct-15 09:55N 41°12' W 008°45'0 0.0
2017-Oct-15 09:25N 41°12' W 008°45'0 0.0
2017-Oct-15 08:58N 41°12' W 008°45'0 0.1
2017-Oct-15 08:28N 41°12' W 008°45'0 0.1
2017-Oct-15 07:58N 41°12' W 008°45'0 0.3
2017-Oct-15 07:28N 41°12' W 008°45'0 0.2
2017-Oct-15 06:58N 41°12' W 008°45'0 0.1
2017-Oct-15 06:28N 41°12' W 008°45'0 0.1
2017-Oct-15 05:58N 41°12' W 008°45'0 0.1
2017-Oct-15 05:19N 41°12' W 008°45'0 0.1
2017-Oct-15 04:55N 41°12' W 008°45'0 0.1
2017-Oct-15 04:28N 41°12' W 008°45'0 0.1
2017-Oct-15 03:55N 41°12' W 008°45'0 0.1
2017-Oct-15 03:28N 41°12' W 008°45'0 0.1
2017-Oct-15 02:49N 41°12' W 008°45'0 0.1
2017-Oct-15 02:28N 41°12' W 008°45'0 0.0
2017-Oct-15 01:58N 41°12' W 008°45'0 0.0
2017-Oct-15 01:28N 41°12' W 008°45'0 0.0
2017-Oct-15 00:58N 41°12' W 008°45'0 0.1
2017-Oct-15 00:28N 41°12' W 008°45'0 0.1
2017-Oct-14 23:58N 41°12' W 008°45'0 0.0
2017-Oct-14 23:28N 41°12' W 008°45'0 0.0
2017-Oct-14 22:58N 41°12' W 008°45'0 0.1
2017-Oct-14 22:28N 41°12' W 008°45'0 0.1
2017-Oct-14 21:55N 41°12' W 008°45'0 0.0
2017-Oct-14 21:28N 41°12' W 008°45'0 0.0
2017-Oct-14 20:52N 41°12' W 008°45'0 0.1
2017-Oct-14 20:28N 41°12' W 008°45'0 0.0
2017-Oct-14 19:58N 41°12' W 008°45'0 0.0
2017-Oct-14 19:28N 41°12' W 008°45'0 0.0
2017-Oct-14 18:58N 41°12' W 008°45'0 0.0
2017-Oct-14 18:28N 41°12' W 008°45'0 0.1
2017-Oct-14 17:58N 41°12' W 008°45'0 0.1
2017-Oct-14 17:28N 41°12' W 008°45'0 0.1
2017-Oct-14 16:55N 41°12' W 008°45'0 0.1
2017-Oct-14 16:28N 41°12' W 008°45'0 0.1
2017-Oct-14 15:55N 41°12' W 008°45'0 0.0
2017-Oct-14 15:19N 41°12' W 008°45'0 0.1
2017-Oct-14 14:58N 41°12' W 008°45'0 0.1
2017-Oct-14 14:25N 41°12' W 008°45'0 0.1
2017-Oct-14 13:58N 41°12' W 008°45'0 0.1
2017-Oct-14 13:28N 41°12' W 008°45'0 0.0
2017-Oct-14 12:58N 41°12' W 008°45'0 0.0
2017-Oct-14 12:16N 41°12' W 008°45'0 0.1
2017-Oct-14 11:58N 41°12' W 008°45'0 0.0
2017-Oct-14 11:28N 41°12' W 008°45'0 0.1
2017-Oct-14 10:58N 41°12' W 008°45'0 0.0
2017-Oct-14 10:28N 41°12' W 008°45'0 0.0
2017-Oct-14 09:58N 41°12' W 008°45'0 0.1
2017-Oct-14 09:28N 41°12' W 008°45'0 0.1
2017-Oct-14 08:58N 41°12' W 008°45'0 0.2
2017-Oct-14 08:30N 41°12' W 008°45'0 0.7
2017-Oct-14 08:00N 41°13' W 008°45'2 3.4
2017-Oct-14 07:31N 41°11' W 008°46'2 4.1
2017-Oct-14 07:00N 41°09' W 008°48'0 0.9
2017-Oct-14 06:30N 41°09' W 008°48'2 4.2
2017-Oct-14 06:00N 41°07' W 008°48'0 0.4
2017-Oct-14 05:10N 41°07' W 008°48'0 0.2
2017-Oct-14 04:55N 41°07' W 008°48'0 0.1
2017-Oct-14 04:28N 41°07' W 008°48'0 0.0
2017-Oct-14 03:19N 41°06' W 008°48'0 0.0
2017-Oct-14 01:46N 41°06' W 008°48'0 0.0
2017-Oct-14 01:28N 41°06' W 008°48'0 0.0
2017-Oct-14 00:40N 41°06' W 008°48'0 0.1
2017-Oct-14 00:25N 41°06' W 008°48'0 0.0
2017-Oct-13 23:40N 41°07' W 008°48'0 0.0
2017-Oct-13 23:22N 41°06' W 008°48'0 0.0
2017-Oct-13 21:58N 41°07' W 008°48'0 0.0
2017-Oct-13 21:28N 41°07' W 008°48'0 0.0
2017-Oct-13 20:49N 41°07' W 008°48'0 0.1
2017-Oct-13 20:19N 41°07' W 008°48'0 0.1
2017-Oct-13 19:58N 41°07' W 008°48'0 0.1
2017-Oct-13 19:25N 41°07' W 008°48'0 0.3
2017-Oct-13 18:48N 41°07' W 008°48'1 1.8
2017-Oct-13 18:30N 41°06' W 008°49'4 4.7
2017-Oct-13 17:44N 41°03' W 008°52'4611.3
2017-Oct-13 13:41N 40°23' W 009°20'211.7
2017-Oct-13 13:30N 40°21' W 009°21'1711.8
2017-Oct-13 12:03N 40°06' W 009°32'111.9
2017-Oct-13 11:58N 40°05' W 009°33'611.8
2017-Oct-13 11:28N 39°60' W 009°37'1111.7
2017-Oct-13 10:34N 39°51' W 009°43'112.0
2017-Oct-13 10:29N 39°50' W 009°44'911.9
2017-Oct-13 09:45N 39°42' W 009°50'612.0
2017-Oct-13 09:15N 39°37' W 009°54'311.9
2017-Oct-13 09:00N 39°35' W 009°56'611.4
2017-Oct-13 08:26N 39°29' W 009°58'511.7
2017-Oct-13 08:00N 39°23' W 009°58'711.2
2017-Oct-13 07:20N 39°16' W 009°58'411.9
2017-Oct-13 07:00N 39°12' W 009°58'611.9
2017-Oct-13 06:30N 39°06' W 009°58'611.8
2017-Oct-13 06:00N 39°00' W 009°57'611.8
2017-Oct-13 05:30N 38°54' W 009°57'611.7
2017-Oct-13 05:00N 38°49' W 009°56'611.5
2017-Oct-13 04:30N 38°43' W 009°57'611.2
2017-Oct-13 04:00N 38°37' W 009°56'611.4
2017-Oct-13 03:27N 38°31' W 009°54'511.3
2017-Oct-13 03:00N 38°26' W 009°52'1011.5
2017-Oct-13 02:09N 38°17' W 009°50'211.2
2017-Oct-13 02:00N 38°15' W 009°49'611.4
2017-Oct-13 01:30N 38°09' W 009°47'611.9
2017-Oct-13 01:00N 38°04' W 009°46'611.7
2017-Oct-13 00:30N 37°58' W 009°44'611.8
2017-Oct-13 00:00N 37°52' W 009°42'611.4
2017-Oct-12 23:30N 37°47' W 009°40'611.5
2017-Oct-12 23:00N 37°41' W 009°38'611.5
2017-Oct-12 22:30N 37°36' W 009°36'3211.7
2017-Oct-12 19:46N 37°04' W 009°28'1611.5
2017-Oct-12 18:21N 36°49' W 009°22'411.6
2017-Oct-12 18:00N 36°46' W 009°18'611.7
2017-Oct-12 17:30N 36°42' W 009°13'611.7
2017-Oct-12 17:00N 36°40' W 009°06'611.6
2017-Oct-12 16:30N 36°38' W 008°59'611.8
2017-Oct-12 16:00N 36°36' W 008°52'611.8
2017-Oct-12 15:30N 36°34' W 008°45'611.8
2017-Oct-12 15:00N 36°32' W 008°38'612.2
2017-Oct-12 14:30N 36°30' W 008°31'612.1
2017-Oct-12 14:00N 36°27' W 008°24'612.3
2017-Oct-12 13:30N 36°25' W 008°17'612.4
2017-Oct-12 13:00N 36°23' W 008°10'612.3
2017-Oct-12 12:30N 36°21' W 008°03'611.8
2017-Oct-12 12:00N 36°18' W 007°56'611.5
2017-Oct-12 11:30N 36°16' W 007°50'611.3
2017-Oct-12 10:59N 36°14' W 007°43'611.7
2017-Oct-12 10:30N 36°12' W 007°36'611.9
2017-Oct-12 09:59N 36°10' W 007°29'612.4
2017-Oct-12 09:29N 36°09' W 007°22'712.3
2017-Oct-12 08:57N 36°08' W 007°14'1611.8
2017-Oct-12 07:36N 36°05' W 006°54'111.7
2017-Oct-12 07:30N 36°05' W 006°53'611.9
2017-Oct-12 07:00N 36°03' W 006°46'611.9
2017-Oct-12 06:30N 36°02' W 006°38'2511.7
2017-Oct-12 04:20N 35°58' W 006°08'412.2
2017-Oct-12 03:59N 35°58' W 006°02'812.4
2017-Oct-12 03:20N 35°58' W 005°52'412.8
2017-Oct-12 03:00N 35°58' W 005°47'612.9
2017-Oct-12 02:30N 35°58' W 005°39'612.2
2017-Oct-12 02:00N 35°59' W 005°32'612.0
2017-Oct-12 01:30N 36°01' W 005°25'611.8
2017-Oct-12 01:00N 36°04' W 005°19'611.0
2017-Oct-12 00:30N 36°07' W 005°13'29211.8
2017-Oct-10 23:41N 37°15' E 000°42'212.3
2017-Oct-10 23:30N 37°15' E 000°44'2712.4
2017-Oct-10 21:17N 37°18' E 001°19'59512.0
2017-Oct-08 19:43N 36°38' E 013°41'411.7
2017-Oct-08 19:24N 36°37' E 013°46'811.5
2017-Oct-08 18:41N 36°34' E 013°55'211.7
2017-Oct-08 18:30N 36°34' E 013°58'611.5
2017-Oct-08 18:00N 36°32' E 014°05'611.5
2017-Oct-08 17:30N 36°30' E 014°12'611.3
2017-Oct-08 17:00N 36°28' E 014°18'611.3
2017-Oct-08 16:30N 36°27' E 014°25'611.4
2017-Oct-08 16:00N 36°26' E 014°32'611.7
2017-Oct-08 15:30N 36°24' E 014°39'611.6
2017-Oct-08 15:00N 36°22' E 014°46'  

Dump ship's entire track history